Weather at Marree Airport

Public forecast

Using degrees Celsius for public forecast. Weather courtesy of forecast.io.

Closest aviation weather report (METAR) to Marree Airport

Closest report is Leigh Creek Airport, 59.2 nm (109.6 km) SSE. Retrieved 2021/03/08 14:00 UTC (9 minutes ago):

YLEC 081400Z AUTO 13009KT 9999 // NCD 24/10 Q1010

Closest aviation forecast (TAF) to Marree Airport

Closest forecast is Woomera Airfield, 109.9 nm (203.6 km) SW. Retrieved 2021/03/08 12:00 UTC (2 hours ago):

TAF YPWR 081045Z 0812/0906 16014KT CAVOK